sensor_id;sensor_type;location;lat;lon;timestamp;temperature;humidity
14908;DHT22;7545;52.092;7.006;2023-03-11T00:01:30;2.10;99.90
14908;DHT22;7545;52.092;7.006;2023-03-11T00:03:57;2.10;99.90
14908;DHT22;7545;52.092;7.006;2023-03-11T00:06:24;2.20;99.90
14908;DHT22;7545;52.092;7.006;2023-03-11T00:08:50;2.20;99.90
14908;DHT22;7545;52.092;7.006;2023-03-11T00:11:16;2.20;99.90
14908;DHT22;7545;52.092;7.006;2023-03-11T00:13:44;2.20;99.90
14908;DHT22;7545;52.092;7.006;2023-03-11T00:16:09;2.20;99.90
14908;DHT22;7545;52.092;7.006;2023-03-11T00:18:35;2.20;99.90
14908;DHT22;7545;52.092;7.006;2023-03-11T00:21:01;2.20;99.90
14908;DHT22;7545;52.092;7.006;2023-03-11T00:23:27;2.20;99.90
14908;DHT22;7545;52.092;7.006;2023-03-11T00:25:53;2.20;99.90
14908;DHT22;7545;52.092;7.006;2023-03-11T00:28:19;2.20;99.90
14908;DHT22;7545;52.092;7.006;2023-03-11T00:30:46;2.20;99.90
14908;DHT22;7545;52.092;7.006;2023-03-11T00:33:14;2.20;99.90
14908;DHT22;7545;52.092;7.006;2023-03-11T00:35:40;2.20;99.90
14908;DHT22;7545;52.092;7.006;2023-03-11T00:38:09;2.10;99.90
14908;DHT22;7545;52.092;7.006;2023-03-11T00:40:36;2.20;99.90
14908;DHT22;7545;52.092;7.006;2023-03-11T00:43:02;2.20;99.90
14908;DHT22;7545;52.092;7.006;2023-03-11T00:45:28;2.20;99.90
14908;DHT22;7545;52.092;7.006;2023-03-11T00:47:54;2.20;99.90
14908;DHT22;7545;52.092;7.006;2023-03-11T00:50:32;2.10;99.90
14908;DHT22;7545;52.092;7.006;2023-03-11T00:52:59;2.20;99.90
14908;DHT22;7545;52.092;7.006;2023-03-11T00:55:27;2.20;99.90
14908;DHT22;7545;52.092;7.006;2023-03-11T00:57:56;2.10;99.90
14908;DHT22;7545;52.092;7.006;2023-03-11T01:00:23;2.20;99.90
14908;DHT22;7545;52.092;7.006;2023-03-11T01:02:49;2.20;99.90
14908;DHT22;7545;52.092;7.006;2023-03-11T01:05:14;2.20;99.90
14908;DHT22;7545;52.092;7.006;2023-03-11T01:07:40;2.20;99.90
14908;DHT22;7545;52.092;7.006;2023-03-11T01:10:08;2.20;99.90
14908;DHT22;7545;52.092;7.006;2023-03-11T01:12:34;2.20;99.90
14908;DHT22;7545;52.092;7.006;2023-03-11T01:15:00;2.20;99.90
14908;DHT22;7545;52.092;7.006;2023-03-11T01:17:26;2.20;99.90
14908;DHT22;7545;52.092;7.006;2023-03-11T01:19:51;2.10;99.90
14908;DHT22;7545;52.092;7.006;2023-03-11T01:22:17;2.10;99.90
14908;DHT22;7545;52.092;7.006;2023-03-11T01:24:43;2.20;99.90
14908;DHT22;7545;52.092;7.006;2023-03-11T01:27:09;2.10;99.90
14908;DHT22;7545;52.092;7.006;2023-03-11T01:29:34;2.10;99.90
14908;DHT22;7545;52.092;7.006;2023-03-11T01:32:00;2.10;99.90
14908;DHT22;7545;52.092;7.006;2023-03-11T01:34:26;2.00;99.90
14908;DHT22;7545;52.092;7.006;2023-03-11T01:36:51;2.00;99.90
14908;DHT22;7545;52.092;7.006;2023-03-11T01:39:17;2.10;99.90
14908;DHT22;7545;52.092;7.006;2023-03-11T01:41:42;2.10;99.90
14908;DHT22;7545;52.092;7.006;2023-03-11T01:44:11;2.10;99.90
14908;DHT22;7545;52.092;7.006;2023-03-11T01:49:18;2.10;99.90
14908;DHT22;7545;52.092;7.006;2023-03-11T01:51:47;2.10;99.90
14908;DHT22;7545;52.092;7.006;2023-03-11T01:54:22;2.10;99.90
14908;DHT22;7545;52.092;7.006;2023-03-11T01:56:50;2.10;99.90
14908;DHT22;7545;52.092;7.006;2023-03-11T01:59:20;2.10;99.90
14908;DHT22;7545;52.092;7.006;2023-03-11T02:01:54;2.10;99.90
14908;DHT22;7545;52.092;7.006;2023-03-11T02:04:22;2.10;99.90
14908;DHT22;7545;52.092;7.006;2023-03-11T02:06:48;2.10;99.90
14908;DHT22;7545;52.092;7.006;2023-03-11T02:09:14;2.10;99.90
14908;DHT22;7545;52.092;7.006;2023-03-11T02:11:39;2.00;99.90
14908;DHT22;7545;52.092;7.006;2023-03-11T02:14:07;2.00;99.90
14908;DHT22;7545;52.092;7.006;2023-03-11T02:16:33;2.00;99.90
14908;DHT22;7545;52.092;7.006;2023-03-11T02:19:09;2.00;99.90
14908;DHT22;7545;52.092;7.006;2023-03-11T02:21:36;2.00;99.90
14908;DHT22;7545;52.092;7.006;2023-03-11T02:24:16;2.00;99.90
14908;DHT22;7545;52.092;7.006;2023-03-11T02:26:57;2.00;99.90
14908;DHT22;7545;52.092;7.006;2023-03-11T02:29:24;2.00;99.90
14908;DHT22;7545;52.092;7.006;2023-03-11T02:31:51;2.00;99.90
14908;DHT22;7545;52.092;7.006;2023-03-11T02:34:26;2.00;99.90
14908;DHT22;7545;52.092;7.006;2023-03-11T02:36:52;2.10;99.90
14908;DHT22;7545;52.092;7.006;2023-03-11T02:39:32;2.10;99.90
14908;DHT22;7545;52.092;7.006;2023-03-11T02:41:58;2.10;99.90
14908;DHT22;7545;52.092;7.006;2023-03-11T02:44:24;2.10;99.90
14908;DHT22;7545;52.092;7.006;2023-03-11T02:46:51;2.10;99.90
14908;DHT22;7545;52.092;7.006;2023-03-11T02:49:17;2.10;99.90
14908;DHT22;7545;52.092;7.006;2023-03-11T02:51:44;2.10;99.90
14908;DHT22;7545;52.092;7.006;2023-03-11T02:54:10;2.00;99.90
14908;DHT22;7545;52.092;7.006;2023-03-11T02:56:35;2.00;99.90
14908;DHT22;7545;52.092;7.006;2023-03-11T02:59:01;2.00;99.90
14908;DHT22;7545;52.092;7.006;2023-03-11T03:01:27;2.00;99.90
14908;DHT22;7545;52.092;7.006;2023-03-11T03:03:52;2.00;99.90
14908;DHT22;7545;52.092;7.006;2023-03-11T03:06:18;1.90;99.90
14908;DHT22;7545;52.092;7.006;2023-03-11T03:08:43;2.00;99.90
14908;DHT22;7545;52.092;7.006;2023-03-11T03:11:09;2.00;99.90
14908;DHT22;7545;52.092;7.006;2023-03-11T03:13:35;2.00;99.90
14908;DHT22;7545;52.092;7.006;2023-03-11T03:16:01;1.90;99.90
14908;DHT22;7545;52.092;7.006;2023-03-11T03:18:26;2.00;99.90
14908;DHT22;7545;52.092;7.006;2023-03-11T03:20:52;2.00;99.90
14908;DHT22;7545;52.092;7.006;2023-03-11T03:23:18;2.00;99.90
14908;DHT22;7545;52.092;7.006;2023-03-11T03:25:44;2.00;99.90
14908;DHT22;7545;52.092;7.006;2023-03-11T03:28:11;2.00;99.90
14908;DHT22;7545;52.092;7.006;2023-03-11T03:30:37;2.00;99.90
14908;DHT22;7545;52.092;7.006;2023-03-11T03:33:03;2.00;99.90
14908;DHT22;7545;52.092;7.006;2023-03-11T03:35:30;2.00;99.90
14908;DHT22;7545;52.092;7.006;2023-03-11T03:37:55;2.00;99.90
14908;DHT22;7545;52.092;7.006;2023-03-11T03:40:21;2.00;99.90
14908;DHT22;7545;52.092;7.006;2023-03-11T03:42:47;2.00;99.90
14908;DHT22;7545;52.092;7.006;2023-03-11T03:45:12;2.00;99.90
14908;DHT22;7545;52.092;7.006;2023-03-11T03:47:38;2.00;99.90
14908;DHT22;7545;52.092;7.006;2023-03-11T03:50:07;2.00;99.90
14908;DHT22;7545;52.092;7.006;2023-03-11T03:52:34;2.00;99.90
14908;DHT22;7545;52.092;7.006;2023-03-11T03:55:00;2.00;99.90
14908;DHT22;7545;52.092;7.006;2023-03-11T03:57:27;2.10;99.90
14908;DHT22;7545;52.092;7.006;2023-03-11T03:59:53;2.00;99.90
14908;DHT22;7545;52.092;7.006;2023-03-11T04:02:18;1.90;99.90
14908;DHT22;7545;52.092;7.006;2023-03-11T04:04:44;1.90;99.90
14908;DHT22;7545;52.092;7.006;2023-03-11T04:07:10;2.00;99.90
14908;DHT22;7545;52.092;7.006;2023-03-11T04:09:40;1.90;99.90
14908;DHT22;7545;52.092;7.006;2023-03-11T04:12:06;2.00;99.90
14908;DHT22;7545;52.092;7.006;2023-03-11T04:14:32;2.00;99.90
14908;DHT22;7545;52.092;7.006;2023-03-11T04:16:58;2.00;99.90
14908;DHT22;7545;52.092;7.006;2023-03-11T04:19:24;2.00;99.90
14908;DHT22;7545;52.092;7.006;2023-03-11T04:21:50;1.90;99.90
14908;DHT22;7545;52.092;7.006;2023-03-11T04:24:17;2.00;99.90
14908;DHT22;7545;52.092;7.006;2023-03-11T04:30:05;2.00;99.90
14908;DHT22;7545;52.092;7.006;2023-03-11T04:32:31;2.00;99.90
14908;DHT22;7545;52.092;7.006;2023-03-11T04:34:57;2.00;99.90
14908;DHT22;7545;52.092;7.006;2023-03-11T04:37:26;2.00;99.90
14908;DHT22;7545;52.092;7.006;2023-03-11T04:39:52;1.90;99.90
14908;DHT22;7545;52.092;7.006;2023-03-11T04:42:18;2.00;99.90
14908;DHT22;7545;52.092;7.006;2023-03-11T04:44:43;1.90;99.90
14908;DHT22;7545;52.092;7.006;2023-03-11T04:47:09;1.90;99.90
14908;DHT22;7545;52.092;7.006;2023-03-11T04:49:35;1.90;99.90
14908;DHT22;7545;52.092;7.006;2023-03-11T04:52:00;1.90;99.90
14908;DHT22;7545;52.092;7.006;2023-03-11T04:54:26;1.90;99.90
14908;DHT22;7545;52.092;7.006;2023-03-11T04:56:51;1.90;99.90
14908;DHT22;7545;52.092;7.006;2023-03-11T04:59:17;1.90;99.90
14908;DHT22;7545;52.092;7.006;2023-03-11T05:01:43;1.80;99.90
14908;DHT22;7545;52.092;7.006;2023-03-11T05:04:08;1.90;99.90
14908;DHT22;7545;52.092;7.006;2023-03-11T05:06:35;1.80;99.90
14908;DHT22;7545;52.092;7.006;2023-03-11T05:09:00;1.80;99.90
14908;DHT22;7545;52.092;7.006;2023-03-11T05:11:26;1.70;99.90
14908;DHT22;7545;52.092;7.006;2023-03-11T05:13:52;1.70;99.90
14908;DHT22;7545;52.092;7.006;2023-03-11T05:16:17;1.70;99.90
14908;DHT22;7545;52.092;7.006;2023-03-11T05:18:43;1.70;99.90
14908;DHT22;7545;52.092;7.006;2023-03-11T05:21:08;1.70;99.90
14908;DHT22;7545;52.092;7.006;2023-03-11T05:23:34;1.80;99.90
14908;DHT22;7545;52.092;7.006;2023-03-11T05:26:00;1.70;99.90
14908;DHT22;7545;52.092;7.006;2023-03-11T05:28:26;1.70;99.90
14908;DHT22;7545;52.092;7.006;2023-03-11T05:30:52;1.60;99.90
14908;DHT22;7545;52.092;7.006;2023-03-11T05:33:17;1.60;99.90
14908;DHT22;7545;52.092;7.006;2023-03-11T05:35:43;1.60;99.90
14908;DHT22;7545;52.092;7.006;2023-03-11T05:38:08;1.60;99.90
14908;DHT22;7545;52.092;7.006;2023-03-11T05:40:34;1.60;99.90
14908;DHT22;7545;52.092;7.006;2023-03-11T05:42:59;1.60;99.90
14908;DHT22;7545;52.092;7.006;2023-03-11T05:45:25;1.60;99.90
14908;DHT22;7545;52.092;7.006;2023-03-11T05:47:51;1.60;99.90
14908;DHT22;7545;52.092;7.006;2023-03-11T05:50:17;1.50;99.90
14908;DHT22;7545;52.092;7.006;2023-03-11T05:52:43;1.60;99.90
14908;DHT22;7545;52.092;7.006;2023-03-11T05:55:09;1.60;99.90
14908;DHT22;7545;52.092;7.006;2023-03-11T05:57:37;1.50;99.90
14908;DHT22;7545;52.092;7.006;2023-03-11T06:00:05;1.50;99.90
14908;DHT22;7545;52.092;7.006;2023-03-11T06:02:31;1.50;99.90
14908;DHT22;7545;52.092;7.006;2023-03-11T06:04:57;1.50;99.90
14908;DHT22;7545;52.092;7.006;2023-03-11T06:07:22;1.50;99.90
14908;DHT22;7545;52.092;7.006;2023-03-11T06:09:51;1.60;99.90
14908;DHT22;7545;52.092;7.006;2023-03-11T06:12:17;1.50;99.90
14908;DHT22;7545;52.092;7.006;2023-03-11T06:14:42;1.50;99.90
14908;DHT22;7545;52.092;7.006;2023-03-11T06:17:08;1.50;99.90
14908;DHT22;7545;52.092;7.006;2023-03-11T06:19:34;1.50;99.90
14908;DHT22;7545;52.092;7.006;2023-03-11T06:21:59;1.50;99.90
14908;DHT22;7545;52.092;7.006;2023-03-11T06:24:25;1.50;99.90
14908;DHT22;7545;52.092;7.006;2023-03-11T06:26:51;1.50;99.90
14908;DHT22;7545;52.092;7.006;2023-03-11T06:29:17;1.50;99.90
14908;DHT22;7545;52.092;7.006;2023-03-11T06:31:43;1.50;99.90
14908;DHT22;7545;52.092;7.006;2023-03-11T06:34:09;1.50;99.90
14908;DHT22;7545;52.092;7.006;2023-03-11T06:36:35;1.60;99.90
14908;DHT22;7545;52.092;7.006;2023-03-11T06:39:01;1.50;99.90
14908;DHT22;7545;52.092;7.006;2023-03-11T06:41:26;1.60;99.90
14908;DHT22;7545;52.092;7.006;2023-03-11T06:43:52;1.50;99.90
14908;DHT22;7545;52.092;7.006;2023-03-11T06:46:20;1.50;99.90
14908;DHT22;7545;52.092;7.006;2023-03-11T06:48:46;1.50;99.90
14908;DHT22;7545;52.092;7.006;2023-03-11T06:51:16;1.40;99.90
14908;DHT22;7545;52.092;7.006;2023-03-11T06:53:42;1.40;99.90
14908;DHT22;7545;52.092;7.006;2023-03-11T06:56:12;1.50;99.90
14908;DHT22;7545;52.092;7.006;2023-03-11T06:58:39;1.50;99.90
14908;DHT22;7545;52.092;7.006;2023-03-11T07:01:09;1.50;99.90
14908;DHT22;7545;52.092;7.006;2023-03-11T07:03:35;1.50;99.90
14908;DHT22;7545;52.092;7.006;2023-03-11T07:06:01;1.40;99.90
14908;DHT22;7545;52.092;7.006;2023-03-11T07:08:26;1.50;99.90
14908;DHT22;7545;52.092;7.006;2023-03-11T07:11:05;1.50;99.90
14908;DHT22;7545;52.092;7.006;2023-03-11T07:13:32;1.50;99.90
14908;DHT22;7545;52.092;7.006;2023-03-11T07:16:02;1.50;99.90
14908;DHT22;7545;52.092;7.006;2023-03-11T07:18:28;1.40;99.90
14908;DHT22;7545;52.092;7.006;2023-03-11T07:20:54;1.50;99.90
14908;DHT22;7545;52.092;7.006;2023-03-11T07:23:19;1.50;99.90
14908;DHT22;7545;52.092;7.006;2023-03-11T07:25:46;1.50;99.90
14908;DHT22;7545;52.092;7.006;2023-03-11T07:28:12;1.50;99.90
14908;DHT22;7545;52.092;7.006;2023-03-11T07:30:38;1.50;99.90
14908;DHT22;7545;52.092;7.006;2023-03-11T07:33:04;1.60;99.90
14908;DHT22;7545;52.092;7.006;2023-03-11T07:35:30;1.60;99.90
14908;DHT22;7545;52.092;7.006;2023-03-11T07:37:55;1.60;99.90
14908;DHT22;7545;52.092;7.006;2023-03-11T07:40:21;1.60;99.90
14908;DHT22;7545;52.092;7.006;2023-03-11T07:42:46;1.60;99.90
14908;DHT22;7545;52.092;7.006;2023-03-11T07:45:12;1.60;99.90
14908;DHT22;7545;52.092;7.006;2023-03-11T07:47:38;1.60;99.90
14908;DHT22;7545;52.092;7.006;2023-03-11T07:50:04;1.60;99.90
14908;DHT22;7545;52.092;7.006;2023-03-11T07:52:30;1.70;99.90
14908;DHT22;7545;52.092;7.006;2023-03-11T07:54:56;1.70;99.90
14908;DHT22;7545;52.092;7.006;2023-03-11T07:57:22;1.70;99.90
14908;DHT22;7545;52.092;7.006;2023-03-11T07:59:48;1.70;99.90
14908;DHT22;7545;52.092;7.006;2023-03-11T08:02:13;1.70;99.90
14908;DHT22;7545;52.092;7.006;2023-03-11T08:04:39;1.80;99.90
14908;DHT22;7545;52.092;7.006;2023-03-11T08:07:05;1.80;99.90
14908;DHT22;7545;52.092;7.006;2023-03-11T08:09:31;1.80;99.90
14908;DHT22;7545;52.092;7.006;2023-03-11T08:11:56;1.80;99.90
14908;DHT22;7545;52.092;7.006;2023-03-11T08:14:22;1.80;99.90
14908;DHT22;7545;52.092;7.006;2023-03-11T08:16:47;1.80;99.90
14908;DHT22;7545;52.092;7.006;2023-03-11T08:19:13;1.90;99.90
14908;DHT22;7545;52.092;7.006;2023-03-11T08:21:39;1.90;99.90
14908;DHT22;7545;52.092;7.006;2023-03-11T08:24:05;1.90;99.90
14908;DHT22;7545;52.092;7.006;2023-03-11T08:26:31;1.90;99.90
14908;DHT22;7545;52.092;7.006;2023-03-11T08:28:57;2.00;99.90
14908;DHT22;7545;52.092;7.006;2023-03-11T08:31:25;1.90;99.90
14908;DHT22;7545;52.092;7.006;2023-03-11T08:33:56;2.10;99.90
14908;DHT22;7545;52.092;7.006;2023-03-11T08:36:22;2.00;99.90
14908;DHT22;7545;52.092;7.006;2023-03-11T08:38:47;2.10;99.90
14908;DHT22;7545;52.092;7.006;2023-03-11T08:41:13;2.10;99.90
14908;DHT22;7545;52.092;7.006;2023-03-11T08:43:39;2.10;99.90
14908;DHT22;7545;52.092;7.006;2023-03-11T08:46:05;2.10;99.90
14908;DHT22;7545;52.092;7.006;2023-03-11T08:48:31;2.10;99.90
14908;DHT22;7545;52.092;7.006;2023-03-11T08:50:57;2.10;99.90
14908;DHT22;7545;52.092;7.006;2023-03-11T08:53:23;2.20;99.90
14908;DHT22;7545;52.092;7.006;2023-03-11T08:55:50;2.20;99.90
14908;DHT22;7545;52.092;7.006;2023-03-11T08:58:17;2.20;99.90
14908;DHT22;7545;52.092;7.006;2023-03-11T09:00:42;2.30;99.90
14908;DHT22;7545;52.092;7.006;2023-03-11T09:03:08;2.30;99.90
14908;DHT22;7545;52.092;7.006;2023-03-11T09:05:34;2.30;99.90
14908;DHT22;7545;52.092;7.006;2023-03-11T09:08:00;2.40;99.90
14908;DHT22;7545;52.092;7.006;2023-03-11T09:10:27;2.40;99.90
14908;DHT22;7545;52.092;7.006;2023-03-11T09:12:58;2.40;99.90
14908;DHT22;7545;52.092;7.006;2023-03-11T09:15:23;2.40;99.90
14908;DHT22;7545;52.092;7.006;2023-03-11T09:17:49;2.50;99.90
14908;DHT22;7545;52.092;7.006;2023-03-11T09:20:15;2.50;99.90
14908;DHT22;7545;52.092;7.006;2023-03-11T09:22:40;2.50;99.90
14908;DHT22;7545;52.092;7.006;2023-03-11T09:25:06;2.60;99.90
14908;DHT22;7545;52.092;7.006;2023-03-11T09:27:32;2.60;99.90
14908;DHT22;7545;52.092;7.006;2023-03-11T09:29:58;2.70;99.90
14908;DHT22;7545;52.092;7.006;2023-03-11T09:32:23;2.70;99.90
14908;DHT22;7545;52.092;7.006;2023-03-11T09:34:49;2.70;99.90
14908;DHT22;7545;52.092;7.006;2023-03-11T09:37:14;2.70;99.90
14908;DHT22;7545;52.092;7.006;2023-03-11T09:39:40;2.70;99.90
14908;DHT22;7545;52.092;7.006;2023-03-11T09:45:25;2.80;99.90
14908;DHT22;7545;52.092;7.006;2023-03-11T09:48:28;2.80;99.90
14908;DHT22;7545;52.092;7.006;2023-03-11T09:50:59;2.90;99.90
14908;DHT22;7545;52.092;7.006;2023-03-11T09:53:47;2.90;99.90
14908;DHT22;7545;52.092;7.006;2023-03-11T09:56:19;3.00;99.90
14908;DHT22;7545;52.092;7.006;2023-03-11T09:58:50;2.90;99.90
14908;DHT22;7545;52.092;7.006;2023-03-11T10:01:26;3.10;99.90
14908;DHT22;7545;52.092;7.006;2023-03-11T10:04:02;3.10;99.90
14908;DHT22;7545;52.092;7.006;2023-03-11T10:06:29;3.10;99.90
14908;DHT22;7545;52.092;7.006;2023-03-11T10:12:01;3.00;99.90
14908;DHT22;7545;52.092;7.006;2023-03-11T10:25:12;3.30;99.90
14908;DHT22;7545;52.092;7.006;2023-03-11T10:27:48;3.40;99.90
14908;DHT22;7545;52.092;7.006;2023-03-11T10:30:29;3.40;99.90
14908;DHT22;7545;52.092;7.006;2023-03-11T10:35:40;3.50;99.90
14908;DHT22;7545;52.092;7.006;2023-03-11T10:38:14;3.60;99.90
14908;DHT22;7545;52.092;7.006;2023-03-11T10:40:44;3.60;99.90
14908;DHT22;7545;52.092;7.006;2023-03-11T10:45:42;3.70;99.90
14908;DHT22;7545;52.092;7.006;2023-03-11T10:48:14;3.70;99.90
14908;DHT22;7545;52.092;7.006;2023-03-11T10:53:17;3.80;99.90
14908;DHT22;7545;52.092;7.006;2023-03-11T10:58:13;3.80;99.90
14908;DHT22;7545;52.092;7.006;2023-03-11T11:00:39;3.80;99.90
14908;DHT22;7545;52.092;7.006;2023-03-11T11:03:14;3.90;99.90
14908;DHT22;7545;52.092;7.006;2023-03-11T11:05:41;3.90;99.90
14908;DHT22;7545;52.092;7.006;2023-03-11T11:08:14;3.90;99.90
14908;DHT22;7545;52.092;7.006;2023-03-11T11:10:51;4.00;99.90
14908;DHT22;7545;52.092;7.006;2023-03-11T11:13:32;4.00;99.90
14908;DHT22;7545;52.092;7.006;2023-03-11T11:16:04;4.00;99.90
14908;DHT22;7545;52.092;7.006;2023-03-11T11:18:33;4.10;99.90
14908;DHT22;7545;52.092;7.006;2023-03-11T11:21:08;4.10;99.90
14908;DHT22;7545;52.092;7.006;2023-03-11T11:23:41;4.20;99.90
14908;DHT22;7545;52.092;7.006;2023-03-11T11:28:40;4.20;99.90
14908;DHT22;7545;52.092;7.006;2023-03-11T11:31:22;4.20;99.90
14908;DHT22;7545;52.092;7.006;2023-03-11T11:33:54;4.20;99.90
14908;DHT22;7545;52.092;7.006;2023-03-11T11:36:24;4.20;99.90
14908;DHT22;7545;52.092;7.006;2023-03-11T11:38:53;4.20;99.90
14908;DHT22;7545;52.092;7.006;2023-03-11T11:41:22;4.20;99.90
14908;DHT22;7545;52.092;7.006;2023-03-11T11:44:00;4.20;99.90
14908;DHT22;7545;52.092;7.006;2023-03-11T11:46:36;4.20;99.90
14908;DHT22;7545;52.092;7.006;2023-03-11T11:49:18;4.30;99.90
14908;DHT22;7545;52.092;7.006;2023-03-11T11:54:30;4.30;99.90
14908;DHT22;7545;52.092;7.006;2023-03-11T11:57:00;4.30;99.90
14908;DHT22;7545;52.092;7.006;2023-03-11T11:59:32;4.40;99.90
14908;DHT22;7545;52.092;7.006;2023-03-11T12:05:04;4.40;99.90
14908;DHT22;7545;52.092;7.006;2023-03-11T12:10:31;4.50;99.90
14908;DHT22;7545;52.092;7.006;2023-03-11T12:18:42;4.60;99.90
14908;DHT22;7545;52.092;7.006;2023-03-11T12:21:26;4.60;99.90
14908;DHT22;7545;52.092;7.006;2023-03-11T12:26:31;4.60;99.90
14908;DHT22;7545;52.092;7.006;2023-03-11T12:29:27;4.60;99.90
14908;DHT22;7545;52.092;7.006;2023-03-11T12:31:54;4.60;99.90
14908;DHT22;7545;52.092;7.006;2023-03-11T12:34:22;4.70;99.90
14908;DHT22;7545;52.092;7.006;2023-03-11T12:36:50;4.70;99.90
14908;DHT22;7545;52.092;7.006;2023-03-11T12:41:48;4.70;99.90
14908;DHT22;7545;52.092;7.006;2023-03-11T12:44:33;4.70;99.90
14908;DHT22;7545;52.092;7.006;2023-03-11T12:47:00;4.80;99.90
14908;DHT22;7545;52.092;7.006;2023-03-11T12:54:37;5.00;99.90
14908;DHT22;7545;52.092;7.006;2023-03-11T13:05:27;5.20;99.90
14908;DHT22;7545;52.092;7.006;2023-03-11T13:13:00;5.30;99.90
14908;DHT22;7545;52.092;7.006;2023-03-11T13:15:30;5.40;99.90
14908;DHT22;7545;52.092;7.006;2023-03-11T13:41:40;5.70;99.90
14908;DHT22;7545;52.092;7.006;2023-03-11T13:44:22;5.80;99.90
14908;DHT22;7545;52.092;7.006;2023-03-11T13:47:08;5.80;99.90
14908;DHT22;7545;52.092;7.006;2023-03-11T13:55:03;5.90;99.90
14908;DHT22;7545;52.092;7.006;2023-03-11T13:57:33;6.00;99.90
14908;DHT22;7545;52.092;7.006;2023-03-11T14:00:20;6.00;99.90
14908;DHT22;7545;52.092;7.006;2023-03-11T14:03:02;6.10;99.90
14908;DHT22;7545;52.092;7.006;2023-03-11T14:05:35;6.20;99.90
14908;DHT22;7545;52.092;7.006;2023-03-11T14:11:15;6.30;99.90
14908;DHT22;7545;52.092;7.006;2023-03-11T14:13:46;6.30;99.90
14908;DHT22;7545;52.092;7.006;2023-03-11T14:16:36;6.30;99.90
14908;DHT22;7545;52.092;7.006;2023-03-11T14:19:18;6.40;99.90
14908;DHT22;7545;52.092;7.006;2023-03-11T14:21:48;6.40;99.90
14908;DHT22;7545;52.092;7.006;2023-03-11T14:24:18;6.40;99.90
14908;DHT22;7545;52.092;7.006;2023-03-11T14:26:44;6.40;99.90
14908;DHT22;7545;52.092;7.006;2023-03-11T14:29:16;6.50;99.90
14908;DHT22;7545;52.092;7.006;2023-03-11T14:31:44;6.40;99.90
14908;DHT22;7545;52.092;7.006;2023-03-11T14:34:12;6.40;99.90
14908;DHT22;7545;52.092;7.006;2023-03-11T14:36:49;6.50;99.90
14908;DHT22;7545;52.092;7.006;2023-03-11T14:39:36;6.50;99.90
14908;DHT22;7545;52.092;7.006;2023-03-11T14:42:10;6.50;99.90
14908;DHT22;7545;52.092;7.006;2023-03-11T14:44:47;6.60;99.90
14908;DHT22;7545;52.092;7.006;2023-03-11T14:47:16;6.60;99.90
14908;DHT22;7545;52.092;7.006;2023-03-11T14:49:42;6.70;99.90
14908;DHT22;7545;52.092;7.006;2023-03-11T14:52:31;6.70;99.90
14908;DHT22;7545;52.092;7.006;2023-03-11T14:54:58;6.80;99.90
14908;DHT22;7545;52.092;7.006;2023-03-11T14:57:37;6.80;99.90
14908;DHT22;7545;52.092;7.006;2023-03-11T15:00:04;6.90;99.90
14908;DHT22;7545;52.092;7.006;2023-03-11T15:02:38;6.90;99.90
14908;DHT22;7545;52.092;7.006;2023-03-11T15:05:26;6.90;99.90
14908;DHT22;7545;52.092;7.006;2023-03-11T15:07:58;6.90;99.90
14908;DHT22;7545;52.092;7.006;2023-03-11T15:10:25;6.90;99.90
14908;DHT22;7545;52.092;7.006;2023-03-11T15:13:04;6.90;99.90
14908;DHT22;7545;52.092;7.006;2023-03-11T15:15:30;6.90;99.90
14908;DHT22;7545;52.092;7.006;2023-03-11T15:17:58;6.90;99.90
14908;DHT22;7545;52.092;7.006;2023-03-11T15:20:24;6.80;99.90
14908;DHT22;7545;52.092;7.006;2023-03-11T15:23:05;6.90;99.90
14908;DHT22;7545;52.092;7.006;2023-03-11T15:25:34;6.90;99.90
14908;DHT22;7545;52.092;7.006;2023-03-11T15:28:21;6.90;99.90
14908;DHT22;7545;52.092;7.006;2023-03-11T15:30:50;6.80;99.90
14908;DHT22;7545;52.092;7.006;2023-03-11T15:33:28;6.80;99.90
14908;DHT22;7545;52.092;7.006;2023-03-11T15:35:55;6.80;99.90
14908;DHT22;7545;52.092;7.006;2023-03-11T15:38:23;6.80;99.90
14908;DHT22;7545;52.092;7.006;2023-03-11T15:40:55;6.80;99.90
14908;DHT22;7545;52.092;7.006;2023-03-11T15:43:23;6.80;99.90
14908;DHT22;7545;52.092;7.006;2023-03-11T15:45:50;6.70;99.90
14908;DHT22;7545;52.092;7.006;2023-03-11T15:48:19;6.70;99.90
14908;DHT22;7545;52.092;7.006;2023-03-11T15:50:53;6.70;99.90
14908;DHT22;7545;52.092;7.006;2023-03-11T15:53:19;6.60;99.90
14908;DHT22;7545;52.092;7.006;2023-03-11T15:55:46;6.60;99.90
14908;DHT22;7545;52.092;7.006;2023-03-11T15:58:14;6.60;99.90
14908;DHT22;7545;52.092;7.006;2023-03-11T16:00:45;6.50;99.90
14908;DHT22;7545;52.092;7.006;2023-03-11T16:03:11;6.50;99.90
14908;DHT22;7545;52.092;7.006;2023-03-11T16:05:37;6.40;99.90
14908;DHT22;7545;52.092;7.006;2023-03-11T16:08:02;6.50;99.90
14908;DHT22;7545;52.092;7.006;2023-03-11T16:10:28;6.40;99.90
14908;DHT22;7545;52.092;7.006;2023-03-11T16:12:54;6.40;99.90
14908;DHT22;7545;52.092;7.006;2023-03-11T16:15:27;6.40;99.90
14908;DHT22;7545;52.092;7.006;2023-03-11T16:18:01;6.40;99.90
14908;DHT22;7545;52.092;7.006;2023-03-11T16:20:40;6.50;99.90
14908;DHT22;7545;52.092;7.006;2023-03-11T16:23:11;6.50;99.90
14908;DHT22;7545;52.092;7.006;2023-03-11T16:25:39;6.50;99.90
14908;DHT22;7545;52.092;7.006;2023-03-11T16:28:06;6.50;99.90
14908;DHT22;7545;52.092;7.006;2023-03-11T16:30:33;6.50;99.90
14908;DHT22;7545;52.092;7.006;2023-03-11T16:32:59;6.40;99.90
14908;DHT22;7545;52.092;7.006;2023-03-11T16:35:25;6.50;99.90
14908;DHT22;7545;52.092;7.006;2023-03-11T16:37:50;6.40;99.90
14908;DHT22;7545;52.092;7.006;2023-03-11T16:40:19;6.40;99.90
14908;DHT22;7545;52.092;7.006;2023-03-11T16:42:46;6.50;99.90
14908;DHT22;7545;52.092;7.006;2023-03-11T16:45:13;6.50;99.90
14908;DHT22;7545;52.092;7.006;2023-03-11T16:47:39;6.50;99.90
14908;DHT22;7545;52.092;7.006;2023-03-11T16:50:05;6.50;99.90
14908;DHT22;7545;52.092;7.006;2023-03-11T16:52:31;6.50;99.90
14908;DHT22;7545;52.092;7.006;2023-03-11T16:54:57;6.40;99.90
14908;DHT22;7545;52.092;7.006;2023-03-11T16:57:22;6.40;99.90
14908;DHT22;7545;52.092;7.006;2023-03-11T16:59:48;6.30;99.90
14908;DHT22;7545;52.092;7.006;2023-03-11T17:02:14;6.30;99.90
14908;DHT22;7545;52.092;7.006;2023-03-11T17:04:40;6.30;99.90
14908;DHT22;7545;52.092;7.006;2023-03-11T17:07:07;6.20;99.90
14908;DHT22;7545;52.092;7.006;2023-03-11T17:09:34;6.20;99.90
14908;DHT22;7545;52.092;7.006;2023-03-11T17:12:00;6.10;99.90
14908;DHT22;7545;52.092;7.006;2023-03-11T17:14:26;6.10;99.90
14908;DHT22;7545;52.092;7.006;2023-03-11T17:16:51;6.10;99.90
14908;DHT22;7545;52.092;7.006;2023-03-11T17:19:17;6.10;99.90
14908;DHT22;7545;52.092;7.006;2023-03-11T17:21:43;6.00;99.90
14908;DHT22;7545;52.092;7.006;2023-03-11T17:24:09;6.00;99.90
14908;DHT22;7545;52.092;7.006;2023-03-11T17:26:35;6.00;99.90
14908;DHT22;7545;52.092;7.006;2023-03-11T17:29:01;5.90;99.90
14908;DHT22;7545;52.092;7.006;2023-03-11T17:31:27;5.90;99.90
14908;DHT22;7545;52.092;7.006;2023-03-11T17:33:52;5.90;99.90
14908;DHT22;7545;52.092;7.006;2023-03-11T17:36:18;5.90;99.90
14908;DHT22;7545;52.092;7.006;2023-03-11T17:38:45;5.80;99.90
14908;DHT22;7545;52.092;7.006;2023-03-11T17:41:14;5.80;99.90
14908;DHT22;7545;52.092;7.006;2023-03-11T17:43:41;5.70;99.90
14908;DHT22;7545;52.092;7.006;2023-03-11T17:46:08;5.70;99.90
14908;DHT22;7545;52.092;7.006;2023-03-11T17:48:36;5.60;99.90
14908;DHT22;7545;52.092;7.006;2023-03-11T17:51:12;5.50;99.90
14908;DHT22;7545;52.092;7.006;2023-03-11T17:53:39;5.40;99.90
14908;DHT22;7545;52.092;7.006;2023-03-11T17:56:06;5.40;99.90